sensor_id;sensor_type;location;lat;lon;timestamp;P1;durP1;ratioP1;P2;durP2;ratioP2
44137;SDS011;29800;55.942;37.314;2023-03-18T00:00:06;5.30;;;2.60;;
44137;SDS011;29800;55.942;37.314;2023-03-18T00:02:37;5.00;;;2.45;;
44137;SDS011;29800;55.942;37.314;2023-03-18T00:05:05;8.00;;;2.50;;
44137;SDS011;29800;55.942;37.314;2023-03-18T00:07:33;4.78;;;2.10;;
44137;SDS011;29800;55.942;37.314;2023-03-18T00:10:00;6.65;;;2.88;;
44137;SDS011;29800;55.942;37.314;2023-03-18T00:12:29;6.13;;;2.17;;
44137;SDS011;29800;55.942;37.314;2023-03-18T00:14:56;5.75;;;2.03;;
44137;SDS011;29800;55.942;37.314;2023-03-18T00:17:24;4.93;;;1.77;;
44137;SDS011;29800;55.942;37.314;2023-03-18T00:19:50;4.95;;;1.90;;
44137;SDS011;29800;55.942;37.314;2023-03-18T00:22:17;4.45;;;1.85;;
44137;SDS011;29800;55.942;37.314;2023-03-18T00:24:43;6.03;;;2.17;;
44137;SDS011;29800;55.942;37.314;2023-03-18T00:27:10;5.65;;;1.92;;
44137;SDS011;29800;55.942;37.314;2023-03-18T00:29:36;4.93;;;2.00;;
44137;SDS011;29800;55.942;37.314;2023-03-18T00:32:04;5.22;;;2.20;;
44137;SDS011;29800;55.942;37.314;2023-03-18T00:34:31;4.82;;;1.90;;
44137;SDS011;29800;55.942;37.314;2023-03-18T00:36:58;5.15;;;2.10;;
44137;SDS011;29800;55.942;37.314;2023-03-18T00:39:24;4.72;;;1.90;;
44137;SDS011;29800;55.942;37.314;2023-03-18T00:41:54;3.83;;;1.85;;
44137;SDS011;29800;55.942;37.314;2023-03-18T00:44:21;3.92;;;1.70;;
44137;SDS011;29800;55.942;37.314;2023-03-18T00:46:49;4.70;;;2.03;;
44137;SDS011;29800;55.942;37.314;2023-03-18T00:49:16;7.40;;;2.00;;
44137;SDS011;29800;55.942;37.314;2023-03-18T00:51:42;3.92;;;1.58;;
44137;SDS011;29800;55.942;37.314;2023-03-18T00:54:10;5.00;;;2.20;;
44137;SDS011;29800;55.942;37.314;2023-03-18T00:56:38;3.70;;;1.80;;
44137;SDS011;29800;55.942;37.314;2023-03-18T00:59:06;4.78;;;1.70;;
44137;SDS011;29800;55.942;37.314;2023-03-18T01:01:33;4.90;;;1.80;;
44137;SDS011;29800;55.942;37.314;2023-03-18T01:04:00;4.57;;;1.80;;
44137;SDS011;29800;55.942;37.314;2023-03-18T01:06:29;5.85;;;2.00;;
44137;SDS011;29800;55.942;37.314;2023-03-18T01:08:57;5.57;;;2.38;;
44137;SDS011;29800;55.942;37.314;2023-03-18T01:11:24;4.93;;;1.90;;
44137;SDS011;29800;55.942;37.314;2023-03-18T01:13:51;5.50;;;2.10;;
44137;SDS011;29800;55.942;37.314;2023-03-18T01:16:17;5.32;;;1.90;;
44137;SDS011;29800;55.942;37.314;2023-03-18T01:18:48;4.95;;;1.83;;
44137;SDS011;29800;55.942;37.314;2023-03-18T01:21:15;6.28;;;2.08;;
44137;SDS011;29800;55.942;37.314;2023-03-18T01:23:48;3.47;;;1.80;;
44137;SDS011;29800;55.942;37.314;2023-03-18T01:26:15;3.92;;;1.85;;
44137;SDS011;29800;55.942;37.314;2023-03-18T01:28:43;6.32;;;1.92;;
44137;SDS011;29800;55.942;37.314;2023-03-18T01:31:10;5.40;;;1.90;;
44137;SDS011;29800;55.942;37.314;2023-03-18T01:33:39;5.22;;;2.28;;
44137;SDS011;29800;55.942;37.314;2023-03-18T01:36:06;6.18;;;1.88;;
44137;SDS011;29800;55.942;37.314;2023-03-18T01:38:33;4.88;;;1.80;;
44137;SDS011;29800;55.942;37.314;2023-03-18T01:41:08;5.68;;;2.20;;
44137;SDS011;29800;55.942;37.314;2023-03-18T01:43:37;4.97;;;2.00;;
44137;SDS011;29800;55.942;37.314;2023-03-18T01:51:30;5.13;;;2.10;;
44137;SDS011;29800;55.942;37.314;2023-03-18T01:53:58;5.57;;;1.88;;
44137;SDS011;29800;55.942;37.314;2023-03-18T01:56:28;4.50;;;1.90;;
44137;SDS011;29800;55.942;37.314;2023-03-18T01:58:55;5.00;;;1.70;;
44137;SDS011;29800;55.942;37.314;2023-03-18T02:01:23;5.65;;;1.67;;
44137;SDS011;29800;55.942;37.314;2023-03-18T02:03:57;5.28;;;1.90;;
44137;SDS011;29800;55.942;37.314;2023-03-18T02:06:25;4.50;;;1.77;;
44137;SDS011;29800;55.942;37.314;2023-03-18T02:08:58;4.45;;;1.90;;
44137;SDS011;29800;55.942;37.314;2023-03-18T02:11:29;7.97;;;2.38;;
44137;SDS011;29800;55.942;37.314;2023-03-18T02:13:59;4.95;;;1.83;;
44137;SDS011;29800;55.942;37.314;2023-03-18T02:16:37;5.25;;;2.03;;
44137;SDS011;29800;55.942;37.314;2023-03-18T02:22:40;6.65;;;2.00;;
44137;SDS011;29800;55.942;37.314;2023-03-18T02:25:07;6.20;;;2.00;;
44137;SDS011;29800;55.942;37.314;2023-03-18T02:27:36;4.90;;;1.95;;
44137;SDS011;29800;55.942;37.314;2023-03-18T02:30:12;6.55;;;2.10;;
44137;SDS011;29800;55.942;37.314;2023-03-18T02:32:53;6.55;;;2.22;;
44137;SDS011;29800;55.942;37.314;2023-03-18T02:35:22;4.70;;;1.77;;
44137;SDS011;29800;55.942;37.314;2023-03-18T02:37:51;4.65;;;1.80;;
44137;SDS011;29800;55.942;37.314;2023-03-18T02:42:56;5.32;;;2.10;;
44137;SDS011;29800;55.942;37.314;2023-03-18T02:45:29;6.13;;;2.20;;
44137;SDS011;29800;55.942;37.314;2023-03-18T02:48:11;5.75;;;2.10;;
44137;SDS011;29800;55.942;37.314;2023-03-18T02:50:43;6.63;;;1.90;;
44137;SDS011;29800;55.942;37.314;2023-03-18T02:53:11;4.97;;;1.90;;
44137;SDS011;29800;55.942;37.314;2023-03-18T02:55:38;5.05;;;2.13;;
44137;SDS011;29800;55.942;37.314;2023-03-18T02:58:04;5.18;;;1.80;;
44137;SDS011;29800;55.942;37.314;2023-03-18T03:00:33;4.63;;;1.88;;
44137;SDS011;29800;55.942;37.314;2023-03-18T03:02:59;5.70;;;2.00;;
44137;SDS011;29800;55.942;37.314;2023-03-18T03:05:28;6.72;;;2.30;;
44137;SDS011;29800;55.942;37.314;2023-03-18T03:07:56;5.53;;;2.10;;
44137;SDS011;29800;55.942;37.314;2023-03-18T03:10:22;3.92;;;1.83;;
44137;SDS011;29800;55.942;37.314;2023-03-18T03:12:48;7.05;;;2.00;;
44137;SDS011;29800;55.942;37.314;2023-03-18T03:15:16;5.80;;;2.00;;
44137;SDS011;29800;55.942;37.314;2023-03-18T03:17:50;4.05;;;2.15;;
44137;SDS011;29800;55.942;37.314;2023-03-18T03:20:18;6.70;;;2.03;;
44137;SDS011;29800;55.942;37.314;2023-03-18T03:22:45;4.63;;;2.00;;
44137;SDS011;29800;55.942;37.314;2023-03-18T03:25:11;7.68;;;2.22;;
44137;SDS011;29800;55.942;37.314;2023-03-18T03:27:39;5.97;;;2.17;;
44137;SDS011;29800;55.942;37.314;2023-03-18T03:30:07;7.65;;;2.40;;
44137;SDS011;29800;55.942;37.314;2023-03-18T03:32:35;4.03;;;1.90;;
44137;SDS011;29800;55.942;37.314;2023-03-18T03:35:02;6.78;;;2.30;;
44137;SDS011;29800;55.942;37.314;2023-03-18T03:37:29;6.07;;;1.77;;
44137;SDS011;29800;55.942;37.314;2023-03-18T03:39:56;5.45;;;1.92;;
44137;SDS011;29800;55.942;37.314;2023-03-18T03:42:22;4.35;;;2.00;;
44137;SDS011;29800;55.942;37.314;2023-03-18T03:44:48;6.97;;;2.00;;
44137;SDS011;29800;55.942;37.314;2023-03-18T03:47:15;4.13;;;1.83;;
44137;SDS011;29800;55.942;37.314;2023-03-18T03:49:46;5.97;;;2.30;;
44137;SDS011;29800;55.942;37.314;2023-03-18T03:52:15;5.50;;;2.05;;
44137;SDS011;29800;55.942;37.314;2023-03-18T03:54:45;5.63;;;2.08;;
44137;SDS011;29800;55.942;37.314;2023-03-18T03:57:12;5.97;;;2.10;;
44137;SDS011;29800;55.942;37.314;2023-03-18T03:59:38;6.90;;;2.30;;
44137;SDS011;29800;55.942;37.314;2023-03-18T04:02:14;7.95;;;2.20;;
44137;SDS011;29800;55.942;37.314;2023-03-18T04:04:40;7.32;;;2.17;;
44137;SDS011;29800;55.942;37.314;2023-03-18T04:07:13;6.53;;;2.08;;
44137;SDS011;29800;55.942;37.314;2023-03-18T04:09:40;4.70;;;2.22;;
44137;SDS011;29800;55.942;37.314;2023-03-18T04:12:07;6.65;;;2.55;;
44137;SDS011;29800;55.942;37.314;2023-03-18T04:14:34;6.80;;;2.40;;
44137;SDS011;29800;55.942;37.314;2023-03-18T04:17:01;5.72;;;2.50;;
44137;SDS011;29800;55.942;37.314;2023-03-18T04:19:27;8.85;;;2.15;;
44137;SDS011;29800;55.942;37.314;2023-03-18T04:21:55;6.63;;;2.85;;
44137;SDS011;29800;55.942;37.314;2023-03-18T04:24:23;7.55;;;2.85;;
44137;SDS011;29800;55.942;37.314;2023-03-18T04:26:49;5.68;;;2.63;;
44137;SDS011;29800;55.942;37.314;2023-03-18T04:29:16;9.13;;;2.67;;
44137;SDS011;29800;55.942;37.314;2023-03-18T04:31:42;6.35;;;2.38;;
44137;SDS011;29800;55.942;37.314;2023-03-18T04:34:09;7.35;;;2.85;;
44137;SDS011;29800;55.942;37.314;2023-03-18T04:36:36;8.25;;;2.78;;
44137;SDS011;29800;55.942;37.314;2023-03-18T04:39:02;7.65;;;2.45;;
44137;SDS011;29800;55.942;37.314;2023-03-18T04:41:28;5.78;;;2.88;;
44137;SDS011;29800;55.942;37.314;2023-03-18T04:43:58;6.28;;;2.72;;
44137;SDS011;29800;55.942;37.314;2023-03-18T04:46:35;7.88;;;2.65;;
44137;SDS011;29800;55.942;37.314;2023-03-18T04:49:02;7.63;;;2.80;;
44137;SDS011;29800;55.942;37.314;2023-03-18T04:51:29;8.73;;;2.80;;
44137;SDS011;29800;55.942;37.314;2023-03-18T04:53:56;7.13;;;2.83;;
44137;SDS011;29800;55.942;37.314;2023-03-18T04:56:27;8.63;;;2.92;;
44137;SDS011;29800;55.942;37.314;2023-03-18T04:58:53;6.97;;;2.53;;
44137;SDS011;29800;55.942;37.314;2023-03-18T05:01:25;6.43;;;2.47;;
44137;SDS011;29800;55.942;37.314;2023-03-18T05:03:52;5.65;;;2.60;;
44137;SDS011;29800;55.942;37.314;2023-03-18T05:06:24;5.15;;;2.70;;
44137;SDS011;29800;55.942;37.314;2023-03-18T05:09:04;5.63;;;2.65;;
44137;SDS011;29800;55.942;37.314;2023-03-18T05:11:32;5.93;;;2.65;;
44137;SDS011;29800;55.942;37.314;2023-03-18T05:14:06;7.10;;;2.55;;
44137;SDS011;29800;55.942;37.314;2023-03-18T05:16:39;7.05;;;3.45;;
44137;SDS011;29800;55.942;37.314;2023-03-18T05:19:07;5.70;;;2.60;;
44137;SDS011;29800;55.942;37.314;2023-03-18T05:21:36;7.65;;;2.65;;
44137;SDS011;29800;55.942;37.314;2023-03-18T05:24:04;6.63;;;2.83;;
44137;SDS011;29800;55.942;37.314;2023-03-18T05:26:36;5.88;;;2.40;;
44137;SDS011;29800;55.942;37.314;2023-03-18T05:29:04;9.25;;;2.83;;
44137;SDS011;29800;55.942;37.314;2023-03-18T05:31:37;6.28;;;2.70;;
44137;SDS011;29800;55.942;37.314;2023-03-18T05:34:04;7.82;;;2.70;;
44137;SDS011;29800;55.942;37.314;2023-03-18T05:36:34;8.10;;;2.70;;
44137;SDS011;29800;55.942;37.314;2023-03-18T05:39:05;8.45;;;2.92;;
44137;SDS011;29800;55.942;37.314;2023-03-18T05:41:31;6.10;;;2.75;;
44137;SDS011;29800;55.942;37.314;2023-03-18T05:43:58;8.38;;;3.05;;
44137;SDS011;29800;55.942;37.314;2023-03-18T05:46:26;6.70;;;3.13;;
44137;SDS011;29800;55.942;37.314;2023-03-18T05:49:12;5.85;;;2.70;;
44137;SDS011;29800;55.942;37.314;2023-03-18T05:51:59;7.13;;;2.97;;
44137;SDS011;29800;55.942;37.314;2023-03-18T05:54:36;6.85;;;3.05;;
44137;SDS011;29800;55.942;37.314;2023-03-18T05:57:03;7.55;;;2.90;;
44137;SDS011;29800;55.942;37.314;2023-03-18T05:59:29;9.93;;;2.70;;
44137;SDS011;29800;55.942;37.314;2023-03-18T06:01:58;6.68;;;2.75;;
44137;SDS011;29800;55.942;37.314;2023-03-18T06:04:25;9.18;;;2.92;;
44137;SDS011;29800;55.942;37.314;2023-03-18T06:06:52;8.68;;;2.70;;
44137;SDS011;29800;55.942;37.314;2023-03-18T06:09:20;7.40;;;2.58;;
44137;SDS011;29800;55.942;37.314;2023-03-18T06:11:47;8.27;;;3.00;;
44137;SDS011;29800;55.942;37.314;2023-03-18T06:14:13;7.32;;;2.70;;
44137;SDS011;29800;55.942;37.314;2023-03-18T06:16:40;9.45;;;2.55;;
44137;SDS011;29800;55.942;37.314;2023-03-18T06:19:07;10.52;;;3.00;;
44137;SDS011;29800;55.942;37.314;2023-03-18T06:21:35;7.13;;;2.63;;
44137;SDS011;29800;55.942;37.314;2023-03-18T06:24:02;13.70;;;2.88;;
44137;SDS011;29800;55.942;37.314;2023-03-18T06:26:31;12.15;;;2.63;;
44137;SDS011;29800;55.942;37.314;2023-03-18T06:28:59;8.30;;;2.78;;
44137;SDS011;29800;55.942;37.314;2023-03-18T06:31:26;6.28;;;2.90;;
44137;SDS011;29800;55.942;37.314;2023-03-18T06:33:53;7.93;;;2.50;;
44137;SDS011;29800;55.942;37.314;2023-03-18T06:36:22;7.75;;;2.47;;
44137;SDS011;29800;55.942;37.314;2023-03-18T06:38:50;4.30;;;1.90;;
44137;SDS011;29800;55.942;37.314;2023-03-18T06:41:18;8.35;;;2.60;;
44137;SDS011;29800;55.942;37.314;2023-03-18T06:44:11;7.30;;;2.40;;
44137;SDS011;29800;55.942;37.314;2023-03-18T06:46:38;7.03;;;2.67;;
44137;SDS011;29800;55.942;37.314;2023-03-18T06:49:07;6.10;;;2.10;;
44137;SDS011;29800;55.942;37.314;2023-03-18T06:51:39;8.05;;;2.10;;
44137;SDS011;29800;55.942;37.314;2023-03-18T06:54:06;5.90;;;2.00;;
44137;SDS011;29800;55.942;37.314;2023-03-18T06:56:32;5.97;;;1.73;;
44137;SDS011;29800;55.942;37.314;2023-03-18T06:59:10;5.85;;;1.95;;
44137;SDS011;29800;55.942;37.314;2023-03-18T07:01:37;6.93;;;1.80;;
44137;SDS011;29800;55.942;37.314;2023-03-18T07:04:04;3.92;;;1.70;;
44137;SDS011;29800;55.942;37.314;2023-03-18T07:06:32;4.82;;;2.15;;
44137;SDS011;29800;55.942;37.314;2023-03-18T07:08:58;5.88;;;2.15;;
44137;SDS011;29800;55.942;37.314;2023-03-18T07:11:27;2.95;;;1.50;;
44137;SDS011;29800;55.942;37.314;2023-03-18T07:13:56;5.47;;;1.80;;
44137;SDS011;29800;55.942;37.314;2023-03-18T07:16:30;6.47;;;1.45;;
44137;SDS011;29800;55.942;37.314;2023-03-18T07:18:56;3.08;;;1.50;;
44137;SDS011;29800;55.942;37.314;2023-03-18T07:21:24;2.75;;;1.35;;
44137;SDS011;29800;55.942;37.314;2023-03-18T07:23:51;3.75;;;1.58;;
44137;SDS011;29800;55.942;37.314;2023-03-18T07:26:19;5.85;;;1.90;;
44137;SDS011;29800;55.942;37.314;2023-03-18T07:28:46;4.28;;;1.40;;
44137;SDS011;29800;55.942;37.314;2023-03-18T07:31:12;4.50;;;1.70;;
44137;SDS011;29800;55.942;37.314;2023-03-18T07:33:39;4.45;;;1.40;;
44137;SDS011;29800;55.942;37.314;2023-03-18T07:36:05;4.22;;;1.73;;
44137;SDS011;29800;55.942;37.314;2023-03-18T07:38:33;4.85;;;1.65;;
44137;SDS011;29800;55.942;37.314;2023-03-18T07:40:59;8.68;;;1.75;;
44137;SDS011;29800;55.942;37.314;2023-03-18T07:43:26;3.97;;;1.60;;
44137;SDS011;29800;55.942;37.314;2023-03-18T07:45:52;4.95;;;2.15;;
44137;SDS011;29800;55.942;37.314;2023-03-18T07:48:18;4.05;;;1.50;;
44137;SDS011;29800;55.942;37.314;2023-03-18T07:50:44;5.30;;;1.60;;
44137;SDS011;29800;55.942;37.314;2023-03-18T07:53:11;4.72;;;1.73;;
44137;SDS011;29800;55.942;37.314;2023-03-18T07:55:37;5.22;;;2.25;;
44137;SDS011;29800;55.942;37.314;2023-03-18T07:58:03;3.38;;;1.65;;
44137;SDS011;29800;55.942;37.314;2023-03-18T08:00:30;6.63;;;2.05;;
44137;SDS011;29800;55.942;37.314;2023-03-18T08:02:57;5.85;;;1.70;;
44137;SDS011;29800;55.942;37.314;2023-03-18T08:05:23;3.83;;;1.60;;
44137;SDS011;29800;55.942;37.314;2023-03-18T08:07:50;8.25;;;1.83;;
44137;SDS011;29800;55.942;37.314;2023-03-18T08:10:16;5.03;;;1.38;;
44137;SDS011;29800;55.942;37.314;2023-03-18T08:12:43;7.03;;;1.55;;
44137;SDS011;29800;55.942;37.314;2023-03-18T08:15:10;4.38;;;1.30;;
44137;SDS011;29800;55.942;37.314;2023-03-18T08:17:37;3.60;;;1.50;;
44137;SDS011;29800;55.942;37.314;2023-03-18T08:20:04;5.95;;;1.70;;
44137;SDS011;29800;55.942;37.314;2023-03-18T08:22:31;4.38;;;1.70;;
44137;SDS011;29800;55.942;37.314;2023-03-18T08:24:57;6.30;;;2.03;;
44137;SDS011;29800;55.942;37.314;2023-03-18T08:27:24;3.58;;;1.60;;
44137;SDS011;29800;55.942;37.314;2023-03-18T08:29:50;4.13;;;1.55;;
44137;SDS011;29800;55.942;37.314;2023-03-18T08:32:16;2.17;;;1.15;;
44137;SDS011;29800;55.942;37.314;2023-03-18T08:34:44;4.78;;;1.30;;
44137;SDS011;29800;55.942;37.314;2023-03-18T08:37:11;2.53;;;1.20;;
44137;SDS011;29800;55.942;37.314;2023-03-18T08:39:39;3.90;;;1.20;;
44137;SDS011;29800;55.942;37.314;2023-03-18T08:42:09;4.32;;;1.30;;
44137;SDS011;29800;55.942;37.314;2023-03-18T08:44:36;3.45;;;1.35;;
44137;SDS011;29800;55.942;37.314;2023-03-18T08:47:02;3.45;;;1.15;;
44137;SDS011;29800;55.942;37.314;2023-03-18T08:49:28;3.83;;;1.60;;
44137;SDS011;29800;55.942;37.314;2023-03-18T08:51:55;7.68;;;1.40;;
44137;SDS011;29800;55.942;37.314;2023-03-18T08:54:22;6.00;;;1.40;;
44137;SDS011;29800;55.942;37.314;2023-03-18T08:56:48;5.03;;;1.63;;
44137;SDS011;29800;55.942;37.314;2023-03-18T08:59:14;3.53;;;1.30;;
44137;SDS011;29800;55.942;37.314;2023-03-18T09:01:42;4.05;;;1.55;;
44137;SDS011;29800;55.942;37.314;2023-03-18T09:04:08;4.47;;;1.60;;
44137;SDS011;29800;55.942;37.314;2023-03-18T09:06:35;3.22;;;1.40;;
44137;SDS011;29800;55.942;37.314;2023-03-18T09:09:01;4.03;;;1.30;;
44137;SDS011;29800;55.942;37.314;2023-03-18T09:11:27;3.60;;;1.60;;
44137;SDS011;29800;55.942;37.314;2023-03-18T09:13:54;4.88;;;1.38;;
44137;SDS011;29800;55.942;37.314;2023-03-18T09:16:20;2.80;;;1.60;;
44137;SDS011;29800;55.942;37.314;2023-03-18T09:18:47;7.05;;;2.38;;
44137;SDS011;29800;55.942;37.314;2023-03-18T09:21:13;3.83;;;1.77;;
44137;SDS011;29800;55.942;37.314;2023-03-18T09:23:40;4.60;;;1.80;;
44137;SDS011;29800;55.942;37.314;2023-03-18T09:26:06;5.20;;;1.80;;
44137;SDS011;29800;55.942;37.314;2023-03-18T09:28:32;3.00;;;1.55;;
44137;SDS011;29800;55.942;37.314;2023-03-18T09:30:58;3.22;;;1.60;;
44137;SDS011;29800;55.942;37.314;2023-03-18T09:33:26;3.35;;;1.38;;
44137;SDS011;29800;55.942;37.314;2023-03-18T09:35:52;3.28;;;1.50;;
44137;SDS011;29800;55.942;37.314;2023-03-18T09:38:19;8.70;;;5.28;;
44137;SDS011;29800;55.942;37.314;2023-03-18T09:46:09;8.00;;;1.80;;
44137;SDS011;29800;55.942;37.314;2023-03-18T09:54:13;6.05;;;2.40;;
44137;SDS011;29800;55.942;37.314;2023-03-18T09:56:45;9.82;;;3.28;;
44137;SDS011;29800;55.942;37.314;2023-03-18T09:59:17;5.53;;;2.40;;
44137;SDS011;29800;55.942;37.314;2023-03-18T10:01:58;5.85;;;3.05;;
44137;SDS011;29800;55.942;37.314;2023-03-18T10:04:47;4.80;;;2.20;;
44137;SDS011;29800;55.942;37.314;2023-03-18T10:07:18;8.15;;;3.88;;
44137;SDS011;29800;55.942;37.314;2023-03-18T10:09:51;3.60;;;1.70;;
44137;SDS011;29800;55.942;37.314;2023-03-18T10:12:33;2.60;;;1.45;;
44137;SDS011;29800;55.942;37.314;2023-03-18T10:20:50;3.00;;;1.63;;
44137;SDS011;29800;55.942;37.314;2023-03-18T10:26:14;4.72;;;1.67;;
44137;SDS011;29800;55.942;37.314;2023-03-18T10:31:29;4.32;;;1.40;;
44137;SDS011;29800;55.942;37.314;2023-03-18T10:34:07;3.08;;;1.33;;
44137;SDS011;29800;55.942;37.314;2023-03-18T10:39:30;2.88;;;1.20;;
44137;SDS011;29800;55.942;37.314;2023-03-18T10:41:59;3.38;;;1.45;;
44137;SDS011;29800;55.942;37.314;2023-03-18T10:44:36;3.00;;;1.20;;
44137;SDS011;29800;55.942;37.314;2023-03-18T10:47:10;6.22;;;1.40;;
44137;SDS011;29800;55.942;37.314;2023-03-18T10:49:54;3.58;;;1.30;;
44137;SDS011;29800;55.942;37.314;2023-03-18T10:52:53;3.50;;;1.48;;
44137;SDS011;29800;55.942;37.314;2023-03-18T10:55:26;3.97;;;1.38;;
44137;SDS011;29800;55.942;37.314;2023-03-18T10:57:57;3.75;;;1.50;;
44137;SDS011;29800;55.942;37.314;2023-03-18T11:00:28;4.57;;;1.55;;
44137;SDS011;29800;55.942;37.314;2023-03-18T11:02:59;2.33;;;1.13;;
44137;SDS011;29800;55.942;37.314;2023-03-18T11:05:31;3.72;;;1.20;;
44137;SDS011;29800;55.942;37.314;2023-03-18T11:08:02;7.18;;;1.75;;
44137;SDS011;29800;55.942;37.314;2023-03-18T11:10:34;4.53;;;1.35;;
44137;SDS011;29800;55.942;37.314;2023-03-18T11:13:04;5.60;;;2.53;;
44137;SDS011;29800;55.942;37.314;2023-03-18T11:15:37;5.00;;;1.42;;
44137;SDS011;29800;55.942;37.314;2023-03-18T11:18:10;5.38;;;2.00;;
44137;SDS011;29800;55.942;37.314;2023-03-18T11:20:42;7.40;;;4.03;;
44137;SDS011;29800;55.942;37.314;2023-03-18T11:25:46;4.68;;;2.00;;
44137;SDS011;29800;55.942;37.314;2023-03-18T11:28:20;5.60;;;3.00;;
44137;SDS011;29800;55.942;37.314;2023-03-18T11:30:54;3.13;;;1.70;;
44137;SDS011;29800;55.942;37.314;2023-03-18T11:33:22;2.05;;;1.45;;
44137;SDS011;29800;55.942;37.314;2023-03-18T11:35:58;2.80;;;1.25;;
44137;SDS011;29800;55.942;37.314;2023-03-18T11:38:32;2.88;;;1.30;;
44137;SDS011;29800;55.942;37.314;2023-03-18T11:41:16;1.58;;;0.90;;
44137;SDS011;29800;55.942;37.314;2023-03-18T11:43:56;2.55;;;1.20;;
44137;SDS011;29800;55.942;37.314;2023-03-18T11:46:36;2.65;;;1.23;;
44137;SDS011;29800;55.942;37.314;2023-03-18T11:49:12;2.83;;;1.15;;
44137;SDS011;29800;55.942;37.314;2023-03-18T11:57:14;2.85;;;1.30;;
44137;SDS011;29800;55.942;37.314;2023-03-18T12:00:02;2.50;;;1.23;;
44137;SDS011;29800;55.942;37.314;2023-03-18T12:08:06;3.10;;;1.20;;
44137;SDS011;29800;55.942;37.314;2023-03-18T12:17:00;3.63;;;2.00;;
44137;SDS011;29800;55.942;37.314;2023-03-18T12:20:02;2.55;;;1.35;;
44137;SDS011;29800;55.942;37.314;2023-03-18T12:25:44;6.07;;;2.60;;
44137;SDS011;29800;55.942;37.314;2023-03-18T12:28:32;3.08;;;1.40;;
44137;SDS011;29800;55.942;37.314;2023-03-18T12:33:56;2.72;;;1.10;;
44137;SDS011;29800;55.942;37.314;2023-03-18T12:45:07;1.85;;;0.80;;
44137;SDS011;29800;55.942;37.314;2023-03-18T12:50:41;3.15;;;1.70;;
44137;SDS011;29800;55.942;37.314;2023-03-18T12:55:46;4.45;;;1.40;;
44137;SDS011;29800;55.942;37.314;2023-03-18T12:58:23;2.85;;;1.30;;
44137;SDS011;29800;55.942;37.314;2023-03-18T13:00:58;3.28;;;1.30;;
44137;SDS011;29800;55.942;37.314;2023-03-18T13:03:44;2.80;;;1.30;;
44137;SDS011;29800;55.942;37.314;2023-03-18T13:06:16;1.92;;;1.10;;
44137;SDS011;29800;55.942;37.314;2023-03-18T13:16:13;3.13;;;1.13;;
44137;SDS011;29800;55.942;37.314;2023-03-18T13:18:45;2.38;;;1.10;;
44137;SDS011;29800;55.942;37.314;2023-03-18T13:24:02;5.10;;;1.20;;
44137;SDS011;29800;55.942;37.314;2023-03-18T13:30:11;1.88;;;1.02;;
44137;SDS011;29800;55.942;37.314;2023-03-18T13:35:54;2.20;;;1.15;;
44137;SDS011;29800;55.942;37.314;2023-03-18T13:38:44;3.63;;;1.05;;
44137;SDS011;29800;55.942;37.314;2023-03-18T13:44:00;2.38;;;1.08;;
44137;SDS011;29800;55.942;37.314;2023-03-18T13:46:34;2.63;;;1.10;;
44137;SDS011;29800;55.942;37.314;2023-03-18T13:49:00;2.20;;;1.17;;
44137;SDS011;29800;55.942;37.314;2023-03-18T13:54:01;5.18;;;1.50;;
44137;SDS011;29800;55.942;37.314;2023-03-18T14:01:58;2.38;;;0.90;;
44137;SDS011;29800;55.942;37.314;2023-03-18T14:04:53;2.17;;;1.13;;
44137;SDS011;29800;55.942;37.314;2023-03-18T14:07:22;2.22;;;1.17;;
44137;SDS011;29800;55.942;37.314;2023-03-18T14:14:55;2.13;;;1.20;;
44137;SDS011;29800;55.942;37.314;2023-03-18T14:17:29;2.78;;;1.10;;
44137;SDS011;29800;55.942;37.314;2023-03-18T14:20:24;2.40;;;1.20;;
44137;SDS011;29800;55.942;37.314;2023-03-18T14:22:53;1.95;;;1.05;;
44137;SDS011;29800;55.942;37.314;2023-03-18T14:25:37;2.63;;;1.02;;
44137;SDS011;29800;55.942;37.314;2023-03-18T14:38:23;4.05;;;1.90;;
44137;SDS011;29800;55.942;37.314;2023-03-18T14:40:53;5.10;;;1.70;;
44137;SDS011;29800;55.942;37.314;2023-03-18T14:43:23;5.72;;;2.03;;
44137;SDS011;29800;55.942;37.314;2023-03-18T14:46:03;9.55;;;3.97;;
44137;SDS011;29800;55.942;37.314;2023-03-18T14:48:33;7.53;;;3.25;;
44137;SDS011;29800;55.942;37.314;2023-03-18T14:51:04;8.55;;;4.00;;
44137;SDS011;29800;55.942;37.314;2023-03-18T14:53:36;6.80;;;2.97;;
44137;SDS011;29800;55.942;37.314;2023-03-18T14:56:04;6.00;;;2.40;;
44137;SDS011;29800;55.942;37.314;2023-03-18T14:58:43;5.47;;;2.45;;
44137;SDS011;29800;55.942;37.314;2023-03-18T15:01:11;3.92;;;2.03;;
44137;SDS011;29800;55.942;37.314;2023-03-18T15:03:43;4.45;;;1.83;;
44137;SDS011;29800;55.942;37.314;2023-03-18T15:06:16;4.68;;;1.70;;
44137;SDS011;29800;55.942;37.314;2023-03-18T15:08:50;6.55;;;1.92;;
44137;SDS011;29800;55.942;37.314;2023-03-18T15:11:23;3.50;;;1.50;;
44137;SDS011;29800;55.942;37.314;2023-03-18T15:13:52;3.03;;;1.40;;
44137;SDS011;29800;55.942;37.314;2023-03-18T15:16:22;3.35;;;1.58;;
44137;SDS011;29800;55.942;37.314;2023-03-18T15:18:53;2.75;;;1.40;;
44137;SDS011;29800;55.942;37.314;2023-03-18T15:24:01;3.75;;;1.40;;
44137;SDS011;29800;55.942;37.314;2023-03-18T15:26:33;2.85;;;1.50;;
44137;SDS011;29800;55.942;37.314;2023-03-18T15:29:22;3.80;;;1.40;;
44137;SDS011;29800;55.942;37.314;2023-03-18T15:31:48;5.03;;;1.60;;
44137;SDS011;29800;55.942;37.314;2023-03-18T15:34:18;3.90;;;1.92;;
44137;SDS011;29800;55.942;37.314;2023-03-18T15:36:54;4.30;;;1.75;;
44137;SDS011;29800;55.942;37.314;2023-03-18T15:39:33;3.33;;;1.88;;
44137;SDS011;29800;55.942;37.314;2023-03-18T15:42:02;4.90;;;2.00;;
44137;SDS011;29800;55.942;37.314;2023-03-18T15:44:38;6.30;;;2.25;;
44137;SDS011;29800;55.942;37.314;2023-03-18T15:47:09;5.05;;;2.38;;
44137;SDS011;29800;55.942;37.314;2023-03-18T15:49:44;4.30;;;2.30;;
44137;SDS011;29800;55.942;37.314;2023-03-18T15:52:27;5.97;;;2.50;;
44137;SDS011;29800;55.942;37.314;2023-03-18T15:54:58;7.90;;;2.92;;
44137;SDS011;29800;55.942;37.314;2023-03-18T15:57:27;6.82;;;2.60;;
44137;SDS011;29800;55.942;37.314;2023-03-18T16:00:05;6.65;;;2.60;;
44137;SDS011;29800;55.942;37.314;2023-03-18T16:02:38;7.22;;;2.97;;
44137;SDS011;29800;55.942;37.314;2023-03-18T16:05:05;8.27;;;2.88;;
44137;SDS011;29800;55.942;37.314;2023-03-18T16:07:41;8.73;;;3.55;;
44137;SDS011;29800;55.942;37.314;2023-03-18T16:10:08;13.38;;;3.30;;
44137;SDS011;29800;55.942;37.314;2023-03-18T16:12:35;9.43;;;3.70;;
44137;SDS011;29800;55.942;37.314;2023-03-18T16:15:04;7.03;;;3.90;;
44137;SDS011;29800;55.942;37.314;2023-03-18T16:17:32;6.78;;;3.60;;
44137;SDS011;29800;55.942;37.314;2023-03-18T16:19:59;8.90;;;3.50;;
44137;SDS011;29800;55.942;37.314;2023-03-18T16:22:28;7.65;;;3.08;;
44137;SDS011;29800;55.942;37.314;2023-03-18T16:24:54;5.63;;;3.13;;
44137;SDS011;29800;55.942;37.314;2023-03-18T16:27:28;6.60;;;3.28;;
44137;SDS011;29800;55.942;37.314;2023-03-18T16:30:03;7.88;;;3.42;;
44137;SDS011;29800;55.942;37.314;2023-03-18T16:32:42;6.03;;;3.38;;
44137;SDS011;29800;55.942;37.314;2023-03-18T16:35:13;9.45;;;3.38;;
44137;SDS011;29800;55.942;37.314;2023-03-18T16:37:44;10.00;;;3.20;;
44137;SDS011;29800;55.942;37.314;2023-03-18T16:40:14;6.22;;;2.50;;
44137;SDS011;29800;55.942;37.314;2023-03-18T16:42:52;6.20;;;2.88;;
44137;SDS011;29800;55.942;37.314;2023-03-18T16:45:19;10.77;;;3.00;;
44137;SDS011;29800;55.942;37.314;2023-03-18T16:47:50;5.72;;;2.53;;
44137;SDS011;29800;55.942;37.314;2023-03-18T16:50:19;6.40;;;2.65;;
44137;SDS011;29800;55.942;37.314;2023-03-18T16:52:48;7.90;;;2.65;;